sensor_id;sensor_type;location;lat;lon;timestamp;P1;durP1;ratioP1;P2;durP2;ratioP2
24277;SDS011;12394;42.692;23.314;2023-04-25T00:01:38;5.10;;;4.50;;
24277;SDS011;12394;42.692;23.314;2023-04-25T00:04:04;5.83;;;4.50;;
24277;SDS011;12394;42.692;23.314;2023-04-25T00:06:32;5.07;;;4.10;;
24277;SDS011;12394;42.692;23.314;2023-04-25T00:09:01;6.53;;;4.90;;
24277;SDS011;12394;42.692;23.314;2023-04-25T00:11:27;5.13;;;4.63;;
24277;SDS011;12394;42.692;23.314;2023-04-25T00:13:53;5.00;;;4.43;;
24277;SDS011;12394;42.692;23.314;2023-04-25T00:16:19;9.77;;;4.40;;
24277;SDS011;12394;42.692;23.314;2023-04-25T00:18:44;6.37;;;4.40;;
24277;SDS011;12394;42.692;23.314;2023-04-25T00:21:16;5.43;;;4.87;;
24277;SDS011;12394;42.692;23.314;2023-04-25T00:23:43;6.30;;;5.13;;
24277;SDS011;12394;42.692;23.314;2023-04-25T00:26:08;7.37;;;5.73;;
24277;SDS011;12394;42.692;23.314;2023-04-25T00:28:33;5.73;;;4.53;;
24277;SDS011;12394;42.692;23.314;2023-04-25T00:30:59;5.50;;;4.50;;
24277;SDS011;12394;42.692;23.314;2023-04-25T00:33:24;5.10;;;4.37;;
24277;SDS011;12394;42.692;23.314;2023-04-25T00:35:50;5.20;;;4.73;;
24277;SDS011;12394;42.692;23.314;2023-04-25T00:38:15;6.87;;;4.70;;
24277;SDS011;12394;42.692;23.314;2023-04-25T00:40:41;6.77;;;5.10;;
24277;SDS011;12394;42.692;23.314;2023-04-25T00:43:08;7.73;;;4.83;;
24277;SDS011;12394;42.692;23.314;2023-04-25T00:45:34;6.83;;;5.83;;
24277;SDS011;12394;42.692;23.314;2023-04-25T00:48:04;8.57;;;6.50;;
24277;SDS011;12394;42.692;23.314;2023-04-25T00:50:29;8.53;;;6.57;;
24277;SDS011;12394;42.692;23.314;2023-04-25T00:52:55;7.53;;;6.53;;
24277;SDS011;12394;42.692;23.314;2023-04-25T00:55:20;8.00;;;6.60;;
24277;SDS011;12394;42.692;23.314;2023-04-25T00:57:46;11.87;;;7.33;;
24277;SDS011;12394;42.692;23.314;2023-04-25T01:00:12;7.57;;;6.77;;
24277;SDS011;12394;42.692;23.314;2023-04-25T01:02:39;7.83;;;6.57;;
24277;SDS011;12394;42.692;23.314;2023-04-25T01:05:05;7.77;;;6.90;;
24277;SDS011;12394;42.692;23.314;2023-04-25T01:07:31;8.87;;;7.10;;
24277;SDS011;12394;42.692;23.314;2023-04-25T01:09:56;7.43;;;6.67;;
24277;SDS011;12394;42.692;23.314;2023-04-25T01:12:22;8.50;;;6.90;;
24277;SDS011;12394;42.692;23.314;2023-04-25T01:14:48;7.50;;;6.70;;
24277;SDS011;12394;42.692;23.314;2023-04-25T01:17:13;8.67;;;7.17;;
24277;SDS011;12394;42.692;23.314;2023-04-25T01:19:39;9.20;;;8.03;;
24277;SDS011;12394;42.692;23.314;2023-04-25T01:22:05;8.30;;;6.77;;
24277;SDS011;12394;42.692;23.314;2023-04-25T01:24:31;8.33;;;6.47;;
24277;SDS011;12394;42.692;23.314;2023-04-25T01:26:58;7.17;;;6.43;;
24277;SDS011;12394;42.692;23.314;2023-04-25T01:29:24;7.50;;;6.30;;
24277;SDS011;12394;42.692;23.314;2023-04-25T01:31:50;7.77;;;6.33;;
24277;SDS011;12394;42.692;23.314;2023-04-25T01:34:17;8.33;;;5.80;;
24277;SDS011;12394;42.692;23.314;2023-04-25T01:36:42;7.20;;;6.00;;
24277;SDS011;12394;42.692;23.314;2023-04-25T01:39:08;7.57;;;5.87;;
24277;SDS011;12394;42.692;23.314;2023-04-25T01:41:34;8.90;;;5.80;;
24277;SDS011;12394;42.692;23.314;2023-04-25T01:44:00;8.07;;;6.33;;
24277;SDS011;12394;42.692;23.314;2023-04-25T01:46:26;7.60;;;5.30;;
24277;SDS011;12394;42.692;23.314;2023-04-25T01:48:52;6.43;;;5.83;;
24277;SDS011;12394;42.692;23.314;2023-04-25T01:51:17;7.63;;;6.13;;
24277;SDS011;12394;42.692;23.314;2023-04-25T01:53:43;7.83;;;6.17;;
24277;SDS011;12394;42.692;23.314;2023-04-25T01:56:09;7.80;;;5.87;;
24277;SDS011;12394;42.692;23.314;2023-04-25T01:58:34;7.90;;;5.67;;
24277;SDS011;12394;42.692;23.314;2023-04-25T02:01:00;7.40;;;5.20;;
24277;SDS011;12394;42.692;23.314;2023-04-25T02:03:25;7.37;;;6.27;;
24277;SDS011;12394;42.692;23.314;2023-04-25T02:05:51;7.10;;;5.80;;
24277;SDS011;12394;42.692;23.314;2023-04-25T02:08:17;6.40;;;5.33;;
24277;SDS011;12394;42.692;23.314;2023-04-25T02:10:42;11.10;;;5.80;;
24277;SDS011;12394;42.692;23.314;2023-04-25T02:13:08;5.77;;;5.17;;
24277;SDS011;12394;42.692;23.314;2023-04-25T02:15:34;7.27;;;6.30;;
24277;SDS011;12394;42.692;23.314;2023-04-25T02:17:59;6.17;;;5.57;;
24277;SDS011;12394;42.692;23.314;2023-04-25T02:20:25;9.53;;;5.00;;
24277;SDS011;12394;42.692;23.314;2023-04-25T02:22:51;6.00;;;5.37;;
24277;SDS011;12394;42.692;23.314;2023-04-25T02:25:17;6.87;;;5.27;;
24277;SDS011;12394;42.692;23.314;2023-04-25T02:27:44;6.53;;;5.40;;
24277;SDS011;12394;42.692;23.314;2023-04-25T02:30:10;5.63;;;5.03;;
24277;SDS011;12394;42.692;23.314;2023-04-25T02:32:36;5.77;;;5.27;;
24277;SDS011;12394;42.692;23.314;2023-04-25T02:35:01;6.33;;;5.30;;
24277;SDS011;12394;42.692;23.314;2023-04-25T02:37:32;7.37;;;5.40;;
24277;SDS011;12394;42.692;23.314;2023-04-25T02:39:59;7.53;;;5.80;;
24277;SDS011;12394;42.692;23.314;2023-04-25T02:42:25;6.70;;;5.90;;
24277;SDS011;12394;42.692;23.314;2023-04-25T02:44:51;10.17;;;6.17;;
24277;SDS011;12394;42.692;23.314;2023-04-25T02:47:16;6.57;;;5.73;;
24277;SDS011;12394;42.692;23.314;2023-04-25T02:49:42;6.80;;;6.10;;
24277;SDS011;12394;42.692;23.314;2023-04-25T02:52:07;6.97;;;6.27;;
24277;SDS011;12394;42.692;23.314;2023-04-25T02:54:33;6.17;;;5.40;;
24277;SDS011;12394;42.692;23.314;2023-04-25T02:56:59;6.80;;;6.10;;
24277;SDS011;12394;42.692;23.314;2023-04-25T02:59:25;7.53;;;5.93;;
24277;SDS011;12394;42.692;23.314;2023-04-25T03:01:51;7.43;;;5.37;;
24277;SDS011;12394;42.692;23.314;2023-04-25T03:04:16;7.50;;;6.70;;
24277;SDS011;12394;42.692;23.314;2023-04-25T03:06:43;11.30;;;6.43;;
24277;SDS011;12394;42.692;23.314;2023-04-25T03:09:09;8.80;;;7.57;;
24277;SDS011;12394;42.692;23.314;2023-04-25T03:11:34;7.33;;;6.63;;
24277;SDS011;12394;42.692;23.314;2023-04-25T03:14:00;7.93;;;7.00;;
24277;SDS011;12394;42.692;23.314;2023-04-25T03:16:25;8.93;;;6.67;;
24277;SDS011;12394;42.692;23.314;2023-04-25T03:18:50;8.60;;;7.67;;
24277;SDS011;12394;42.692;23.314;2023-04-25T03:21:16;9.53;;;7.57;;
24277;SDS011;12394;42.692;23.314;2023-04-25T03:23:42;8.30;;;6.70;;
24277;SDS011;12394;42.692;23.314;2023-04-25T03:26:07;19.57;;;14.43;;
24277;SDS011;12394;42.692;23.314;2023-04-25T03:28:32;7.77;;;6.70;;
24277;SDS011;12394;42.692;23.314;2023-04-25T03:30:58;7.30;;;6.07;;
24277;SDS011;12394;42.692;23.314;2023-04-25T03:33:23;7.73;;;6.47;;
24277;SDS011;12394;42.692;23.314;2023-04-25T03:35:49;7.87;;;6.60;;
24277;SDS011;12394;42.692;23.314;2023-04-25T03:38:15;8.03;;;6.70;;
24277;SDS011;12394;42.692;23.314;2023-04-25T03:40:40;8.33;;;6.50;;
24277;SDS011;12394;42.692;23.314;2023-04-25T03:43:06;7.30;;;6.50;;
24277;SDS011;12394;42.692;23.314;2023-04-25T03:45:31;8.93;;;6.93;;
24277;SDS011;12394;42.692;23.314;2023-04-25T03:47:56;7.90;;;5.83;;
24277;SDS011;12394;42.692;23.314;2023-04-25T03:50:22;8.60;;;6.73;;
24277;SDS011;12394;42.692;23.314;2023-04-25T03:52:47;8.23;;;6.70;;
24277;SDS011;12394;42.692;23.314;2023-04-25T03:55:13;9.43;;;6.53;;
24277;SDS011;12394;42.692;23.314;2023-04-25T03:57:38;8.83;;;6.53;;
24277;SDS011;12394;42.692;23.314;2023-04-25T04:00:03;9.20;;;7.40;;
24277;SDS011;12394;42.692;23.314;2023-04-25T04:02:29;9.97;;;7.50;;
24277;SDS011;12394;42.692;23.314;2023-04-25T04:04:55;9.57;;;6.63;;
24277;SDS011;12394;42.692;23.314;2023-04-25T04:07:21;7.97;;;6.90;;
24277;SDS011;12394;42.692;23.314;2023-04-25T04:09:47;9.77;;;7.87;;
24277;SDS011;12394;42.692;23.314;2023-04-25T04:12:12;7.90;;;6.63;;
24277;SDS011;12394;42.692;23.314;2023-04-25T04:14:37;9.13;;;6.43;;
24277;SDS011;12394;42.692;23.314;2023-04-25T04:17:03;8.70;;;7.33;;
24277;SDS011;12394;42.692;23.314;2023-04-25T04:19:28;7.77;;;7.07;;
24277;SDS011;12394;42.692;23.314;2023-04-25T04:21:54;7.87;;;7.07;;
24277;SDS011;12394;42.692;23.314;2023-04-25T04:24:19;8.60;;;7.47;;
24277;SDS011;12394;42.692;23.314;2023-04-25T04:26:44;10.43;;;7.67;;
24277;SDS011;12394;42.692;23.314;2023-04-25T04:29:10;9.27;;;8.20;;
24277;SDS011;12394;42.692;23.314;2023-04-25T04:31:36;9.37;;;7.90;;
24277;SDS011;12394;42.692;23.314;2023-04-25T04:34:01;8.67;;;7.37;;
24277;SDS011;12394;42.692;23.314;2023-04-25T04:36:28;10.70;;;8.20;;
24277;SDS011;12394;42.692;23.314;2023-04-25T04:38:54;11.23;;;8.57;;
24277;SDS011;12394;42.692;23.314;2023-04-25T04:41:21;12.77;;;10.13;;
24277;SDS011;12394;42.692;23.314;2023-04-25T04:43:46;13.50;;;9.07;;
24277;SDS011;12394;42.692;23.314;2023-04-25T04:46:12;13.67;;;9.97;;
24277;SDS011;12394;42.692;23.314;2023-04-25T04:48:37;10.53;;;9.43;;
24277;SDS011;12394;42.692;23.314;2023-04-25T04:51:26;10.97;;;9.80;;
24277;SDS011;12394;42.692;23.314;2023-04-25T04:53:51;10.37;;;9.13;;
24277;SDS011;12394;42.692;23.314;2023-04-25T04:56:16;13.47;;;8.93;;
24277;SDS011;12394;42.692;23.314;2023-04-25T04:58:45;13.33;;;9.40;;
24277;SDS011;12394;42.692;23.314;2023-04-25T05:01:10;18.37;;;10.70;;
24277;SDS011;12394;42.692;23.314;2023-04-25T05:03:35;12.90;;;9.03;;
24277;SDS011;12394;42.692;23.314;2023-04-25T05:06:01;10.77;;;9.03;;
24277;SDS011;12394;42.692;23.314;2023-04-25T05:08:27;14.13;;;9.47;;
24277;SDS011;12394;42.692;23.314;2023-04-25T05:10:52;12.03;;;9.67;;
24277;SDS011;12394;42.692;23.314;2023-04-25T05:13:17;12.73;;;10.30;;
24277;SDS011;12394;42.692;23.314;2023-04-25T05:15:43;14.90;;;10.80;;
24277;SDS011;12394;42.692;23.314;2023-04-25T05:18:08;11.50;;;10.27;;
24277;SDS011;12394;42.692;23.314;2023-04-25T05:20:34;14.67;;;11.30;;
24277;SDS011;12394;42.692;23.314;2023-04-25T05:22:59;14.93;;;12.10;;
24277;SDS011;12394;42.692;23.314;2023-04-25T05:25:25;19.57;;;14.60;;
24277;SDS011;12394;42.692;23.314;2023-04-25T05:27:50;15.63;;;13.67;;
24277;SDS011;12394;42.692;23.314;2023-04-25T05:30:17;16.23;;;13.23;;
24277;SDS011;12394;42.692;23.314;2023-04-25T05:32:42;17.70;;;12.27;;
24277;SDS011;12394;42.692;23.314;2023-04-25T05:35:08;13.90;;;11.67;;
24277;SDS011;12394;42.692;23.314;2023-04-25T05:37:33;13.80;;;10.17;;
24277;SDS011;12394;42.692;23.314;2023-04-25T05:39:59;12.20;;;9.40;;
24277;SDS011;12394;42.692;23.314;2023-04-25T05:42:24;13.83;;;8.77;;
24277;SDS011;12394;42.692;23.314;2023-04-25T05:44:50;14.53;;;10.20;;
24277;SDS011;12394;42.692;23.314;2023-04-25T05:47:15;16.10;;;9.53;;
24277;SDS011;12394;42.692;23.314;2023-04-25T05:49:40;12.03;;;10.73;;
24277;SDS011;12394;42.692;23.314;2023-04-25T05:52:06;19.00;;;10.93;;
24277;SDS011;12394;42.692;23.314;2023-04-25T05:54:31;10.73;;;9.63;;
24277;SDS011;12394;42.692;23.314;2023-04-25T05:56:57;9.93;;;8.80;;
24277;SDS011;12394;42.692;23.314;2023-04-25T05:59:22;11.73;;;9.57;;
24277;SDS011;12394;42.692;23.314;2023-04-25T06:01:48;14.60;;;10.73;;
24277;SDS011;12394;42.692;23.314;2023-04-25T06:04:13;18.70;;;10.57;;
24277;SDS011;12394;42.692;23.314;2023-04-25T06:06:39;16.37;;;12.77;;
24277;SDS011;12394;42.692;23.314;2023-04-25T06:09:04;16.43;;;12.03;;
24277;SDS011;12394;42.692;23.314;2023-04-25T06:11:29;18.43;;;11.87;;
24277;SDS011;12394;42.692;23.314;2023-04-25T06:13:55;26.93;;;15.30;;
24277;SDS011;12394;42.692;23.314;2023-04-25T06:16:20;20.07;;;12.00;;
24277;SDS011;12394;42.692;23.314;2023-04-25T06:18:45;15.57;;;11.90;;
24277;SDS011;12394;42.692;23.314;2023-04-25T06:21:11;10.73;;;9.57;;
24277;SDS011;12394;42.692;23.314;2023-04-25T06:23:36;11.87;;;8.07;;
24277;SDS011;12394;42.692;23.314;2023-04-25T06:26:02;17.57;;;10.23;;
24277;SDS011;12394;42.692;23.314;2023-04-25T06:28:27;10.33;;;8.10;;
24277;SDS011;12394;42.692;23.314;2023-04-25T06:30:52;12.67;;;9.60;;
24277;SDS011;12394;42.692;23.314;2023-04-25T06:33:18;8.50;;;7.33;;
24277;SDS011;12394;42.692;23.314;2023-04-25T06:35:43;12.13;;;7.60;;
24277;SDS011;12394;42.692;23.314;2023-04-25T06:38:08;11.10;;;7.67;;
24277;SDS011;12394;42.692;23.314;2023-04-25T06:40:34;10.67;;;6.97;;
24277;SDS011;12394;42.692;23.314;2023-04-25T06:42:59;43.07;;;11.47;;
24277;SDS011;12394;42.692;23.314;2023-04-25T06:45:25;9.13;;;6.33;;
24277;SDS011;12394;42.692;23.314;2023-04-25T06:47:50;6.77;;;5.93;;
24277;SDS011;12394;42.692;23.314;2023-04-25T06:50:15;9.33;;;5.77;;
24277;SDS011;12394;42.692;23.314;2023-04-25T06:52:41;9.17;;;5.77;;
24277;SDS011;12394;42.692;23.314;2023-04-25T06:55:06;8.03;;;6.17;;
24277;SDS011;12394;42.692;23.314;2023-04-25T06:57:32;10.90;;;7.13;;
24277;SDS011;12394;42.692;23.314;2023-04-25T06:59:57;10.67;;;7.77;;
24277;SDS011;12394;42.692;23.314;2023-04-25T07:02:22;13.90;;;10.00;;
24277;SDS011;12394;42.692;23.314;2023-04-25T07:04:48;7.87;;;6.10;;
24277;SDS011;12394;42.692;23.314;2023-04-25T07:07:13;9.63;;;7.10;;
24277;SDS011;12394;42.692;23.314;2023-04-25T07:09:39;17.77;;;6.70;;
24277;SDS011;12394;42.692;23.314;2023-04-25T07:12:04;12.30;;;7.57;;
24277;SDS011;12394;42.692;23.314;2023-04-25T07:14:30;9.27;;;6.57;;
24277;SDS011;12394;42.692;23.314;2023-04-25T07:16:55;17.27;;;8.67;;
24277;SDS011;12394;42.692;23.314;2023-04-25T07:19:21;8.90;;;7.47;;
24277;SDS011;12394;42.692;23.314;2023-04-25T07:21:48;11.70;;;8.40;;
24277;SDS011;12394;42.692;23.314;2023-04-25T07:24:14;17.33;;;8.57;;
24277;SDS011;12394;42.692;23.314;2023-04-25T07:26:39;35.10;;;9.07;;
24277;SDS011;12394;42.692;23.314;2023-04-25T07:29:05;20.10;;;8.73;;
24277;SDS011;12394;42.692;23.314;2023-04-25T07:31:30;12.83;;;7.97;;
24277;SDS011;12394;42.692;23.314;2023-04-25T07:33:56;9.30;;;7.70;;
24277;SDS011;12394;42.692;23.314;2023-04-25T07:36:21;13.20;;;7.67;;
24277;SDS011;12394;42.692;23.314;2023-04-25T07:38:46;11.57;;;7.63;;
24277;SDS011;12394;42.692;23.314;2023-04-25T07:41:12;16.40;;;8.80;;
24277;SDS011;12394;42.692;23.314;2023-04-25T07:43:37;14.47;;;9.03;;
24277;SDS011;12394;42.692;23.314;2023-04-25T07:46:03;8.67;;;7.37;;
24277;SDS011;12394;42.692;23.314;2023-04-25T07:48:29;18.07;;;8.33;;
24277;SDS011;12394;42.692;23.314;2023-04-25T07:50:54;11.40;;;8.37;;
24277;SDS011;12394;42.692;23.314;2023-04-25T07:53:20;14.57;;;7.73;;
24277;SDS011;12394;42.692;23.314;2023-04-25T07:55:45;16.53;;;9.00;;
24277;SDS011;12394;42.692;23.314;2023-04-25T07:58:10;11.77;;;7.23;;
24277;SDS011;12394;42.692;23.314;2023-04-25T08:00:36;12.67;;;8.43;;
24277;SDS011;12394;42.692;23.314;2023-04-25T08:03:01;20.33;;;9.03;;
24277;SDS011;12394;42.692;23.314;2023-04-25T08:05:27;10.00;;;7.43;;
24277;SDS011;12394;42.692;23.314;2023-04-25T08:07:53;10.27;;;7.10;;
24277;SDS011;12394;42.692;23.314;2023-04-25T08:10:18;15.53;;;7.47;;
24277;SDS011;12394;42.692;23.314;2023-04-25T08:12:44;10.97;;;6.23;;
24277;SDS011;12394;42.692;23.314;2023-04-25T08:15:09;9.07;;;6.73;;
24277;SDS011;12394;42.692;23.314;2023-04-25T08:17:35;7.83;;;6.20;;
24277;SDS011;12394;42.692;23.314;2023-04-25T08:20:00;9.83;;;5.87;;
24277;SDS011;12394;42.692;23.314;2023-04-25T08:22:26;11.67;;;6.30;;
24277;SDS011;12394;42.692;23.314;2023-04-25T08:24:51;7.23;;;5.53;;
24277;SDS011;12394;42.692;23.314;2023-04-25T08:27:17;9.50;;;5.20;;
24277;SDS011;12394;42.692;23.314;2023-04-25T08:29:43;8.17;;;5.40;;
24277;SDS011;12394;42.692;23.314;2023-04-25T08:32:28;9.00;;;5.03;;
24277;SDS011;12394;42.692;23.314;2023-04-25T08:34:53;21.83;;;6.57;;
24277;SDS011;12394;42.692;23.314;2023-04-25T08:37:20;8.83;;;6.37;;
24277;SDS011;12394;42.692;23.314;2023-04-25T08:39:46;17.03;;;6.80;;
24277;SDS011;12394;42.692;23.314;2023-04-25T08:42:13;8.27;;;5.30;;
24277;SDS011;12394;42.692;23.314;2023-04-25T08:44:40;6.40;;;3.83;;
24277;SDS011;12394;42.692;23.314;2023-04-25T08:47:05;7.83;;;6.20;;
24277;SDS011;12394;42.692;23.314;2023-04-25T08:49:31;12.80;;;6.87;;
24277;SDS011;12394;42.692;23.314;2023-04-25T08:51:59;15.60;;;8.80;;
24277;SDS011;12394;42.692;23.314;2023-04-25T08:54:27;7.70;;;4.33;;
24277;SDS011;12394;42.692;23.314;2023-04-25T08:56:54;8.13;;;4.40;;
24277;SDS011;12394;42.692;23.314;2023-04-25T08:59:20;7.37;;;4.23;;
24277;SDS011;12394;42.692;23.314;2023-04-25T09:01:48;9.10;;;4.87;;
24277;SDS011;12394;42.692;23.314;2023-04-25T09:04:14;4.97;;;4.17;;
24277;SDS011;12394;42.692;23.314;2023-04-25T09:06:40;7.83;;;3.80;;
24277;SDS011;12394;42.692;23.314;2023-04-25T09:09:06;4.30;;;3.20;;
24277;SDS011;12394;42.692;23.314;2023-04-25T09:11:33;3.70;;;3.30;;
24277;SDS011;12394;42.692;23.314;2023-04-25T09:14:14;6.97;;;4.10;;
24277;SDS011;12394;42.692;23.314;2023-04-25T09:16:56;8.87;;;5.00;;
24277;SDS011;12394;42.692;23.314;2023-04-25T09:19:22;11.23;;;4.20;;
24277;SDS011;12394;42.692;23.314;2023-04-25T09:21:50;7.53;;;5.00;;
24277;SDS011;12394;42.692;23.314;2023-04-25T09:24:15;9.17;;;5.03;;
24277;SDS011;12394;42.692;23.314;2023-04-25T09:26:41;5.40;;;4.83;;
24277;SDS011;12394;42.692;23.314;2023-04-25T09:29:07;9.20;;;4.97;;
24277;SDS011;12394;42.692;23.314;2023-04-25T09:31:32;8.57;;;5.57;;
24277;SDS011;12394;42.692;23.314;2023-04-25T09:33:59;16.30;;;5.80;;
24277;SDS011;12394;42.692;23.314;2023-04-25T09:36:29;10.90;;;5.13;;
24277;SDS011;12394;42.692;23.314;2023-04-25T09:38:55;7.93;;;5.23;;
24277;SDS011;12394;42.692;23.314;2023-04-25T09:41:24;9.53;;;5.43;;
24277;SDS011;12394;42.692;23.314;2023-04-25T09:43:50;14.43;;;6.27;;
24277;SDS011;12394;42.692;23.314;2023-04-25T09:46:15;8.00;;;4.87;;
24277;SDS011;12394;42.692;23.314;2023-04-25T09:49:05;7.67;;;3.57;;
24277;SDS011;12394;42.692;23.314;2023-04-25T09:51:32;6.23;;;3.20;;
24277;SDS011;12394;42.692;23.314;2023-04-25T09:53:57;3.73;;;1.73;;
24277;SDS011;12394;42.692;23.314;2023-04-25T09:56:22;4.37;;;3.20;;
24277;SDS011;12394;42.692;23.314;2023-04-25T09:58:49;9.80;;;4.57;;
24277;SDS011;12394;42.692;23.314;2023-04-25T10:01:19;5.07;;;4.00;;
24277;SDS011;12394;42.692;23.314;2023-04-25T10:03:52;9.30;;;4.83;;
24277;SDS011;12394;42.692;23.314;2023-04-25T10:06:44;12.97;;;4.00;;
24277;SDS011;12394;42.692;23.314;2023-04-25T10:09:33;8.10;;;3.73;;
24277;SDS011;12394;42.692;23.314;2023-04-25T10:12:02;10.63;;;3.47;;
24277;SDS011;12394;42.692;23.314;2023-04-25T10:14:29;3.30;;;3.00;;
24277;SDS011;12394;42.692;23.314;2023-04-25T10:16:57;5.20;;;3.20;;
24277;SDS011;12394;42.692;23.314;2023-04-25T10:19:23;10.00;;;3.87;;
24277;SDS011;12394;42.692;23.314;2023-04-25T10:22:02;6.83;;;3.60;;
24277;SDS011;12394;42.692;23.314;2023-04-25T10:24:31;2.90;;;1.70;;
24277;SDS011;12394;42.692;23.314;2023-04-25T10:26:57;3.60;;;1.40;;
24277;SDS011;12394;42.692;23.314;2023-04-25T10:29:24;5.60;;;1.97;;
24277;SDS011;12394;42.692;23.314;2023-04-25T10:31:50;5.57;;;2.20;;
24277;SDS011;12394;42.692;23.314;2023-04-25T10:34:17;3.93;;;1.80;;
24277;SDS011;12394;42.692;23.314;2023-04-25T10:36:43;6.63;;;1.77;;
24277;SDS011;12394;42.692;23.314;2023-04-25T10:39:15;3.53;;;1.77;;
24277;SDS011;12394;42.692;23.314;2023-04-25T10:41:48;5.47;;;1.80;;
24277;SDS011;12394;42.692;23.314;2023-04-25T10:44:30;8.03;;;1.67;;
24277;SDS011;12394;42.692;23.314;2023-04-25T10:46:56;5.07;;;2.17;;
24277;SDS011;12394;42.692;23.314;2023-04-25T10:54:58;6.57;;;2.83;;
24277;SDS011;12394;42.692;23.314;2023-04-25T10:59:59;5.27;;;2.40;;
24277;SDS011;12394;42.692;23.314;2023-04-25T11:02:41;10.13;;;2.67;;
24277;SDS011;12394;42.692;23.314;2023-04-25T11:05:23;4.23;;;1.30;;
24277;SDS011;12394;42.692;23.314;2023-04-25T11:07:56;1.77;;;1.20;;
24277;SDS011;12394;42.692;23.314;2023-04-25T11:10:29;7.37;;;1.80;;
24277;SDS011;12394;42.692;23.314;2023-04-25T11:13:17;6.27;;;1.93;;
24277;SDS011;12394;42.692;23.314;2023-04-25T11:15:54;3.77;;;1.40;;
24277;SDS011;12394;42.692;23.314;2023-04-25T11:18:19;1.20;;;1.10;;
24277;SDS011;12394;42.692;23.314;2023-04-25T11:20:46;8.00;;;1.50;;
24277;SDS011;12394;42.692;23.314;2023-04-25T11:23:13;3.73;;;1.30;;
24277;SDS011;12394;42.692;23.314;2023-04-25T11:25:40;5.07;;;1.20;;
24277;SDS011;12394;42.692;23.314;2023-04-25T11:28:05;2.50;;;1.47;;
24277;SDS011;12394;42.692;23.314;2023-04-25T11:30:31;2.47;;;1.77;;
24277;SDS011;12394;42.692;23.314;2023-04-25T11:32:57;3.50;;;2.30;;
24277;SDS011;12394;42.692;23.314;2023-04-25T11:35:22;8.87;;;2.27;;
24277;SDS011;12394;42.692;23.314;2023-04-25T11:37:48;10.43;;;2.30;;
24277;SDS011;12394;42.692;23.314;2023-04-25T11:40:35;3.20;;;1.83;;
24277;SDS011;12394;42.692;23.314;2023-04-25T11:43:00;7.90;;;2.20;;
24277;SDS011;12394;42.692;23.314;2023-04-25T11:45:26;2.53;;;1.60;;
24277;SDS011;12394;42.692;23.314;2023-04-25T11:47:52;2.57;;;1.67;;
24277;SDS011;12394;42.692;23.314;2023-04-25T11:50:18;2.27;;;1.40;;
24277;SDS011;12394;42.692;23.314;2023-04-25T11:52:45;6.00;;;1.57;;
24277;SDS011;12394;42.692;23.314;2023-04-25T11:55:15;1.30;;;1.17;;
24277;SDS011;12394;42.692;23.314;2023-04-25T11:57:42;2.33;;;1.30;;
24277;SDS011;12394;42.692;23.314;2023-04-25T12:00:13;3.43;;;1.60;;
24277;SDS011;12394;42.692;23.314;2023-04-25T12:02:43;3.43;;;2.10;;
24277;SDS011;12394;42.692;23.314;2023-04-25T12:05:11;4.53;;;1.50;;
24277;SDS011;12394;42.692;23.314;2023-04-25T12:07:38;1.00;;;0.90;;
24277;SDS011;12394;42.692;23.314;2023-04-25T12:12:50;2.50;;;1.40;;
24277;SDS011;12394;42.692;23.314;2023-04-25T12:15:23;1.27;;;1.03;;
24277;SDS011;12394;42.692;23.314;2023-04-25T12:17:50;2.97;;;1.70;;
24277;SDS011;12394;42.692;23.314;2023-04-25T12:20:17;2.63;;;1.93;;
24277;SDS011;12394;42.692;23.314;2023-04-25T12:22:46;2.60;;;1.60;;
24277;SDS011;12394;42.692;23.314;2023-04-25T12:25:12;2.73;;;1.70;;
24277;SDS011;12394;42.692;23.314;2023-04-25T12:27:39;1.80;;;1.50;;
24277;SDS011;12394;42.692;23.314;2023-04-25T12:30:09;2.03;;;1.10;;
24277;SDS011;12394;42.692;23.314;2023-04-25T12:32:38;6.40;;;2.40;;
24277;SDS011;12394;42.692;23.314;2023-04-25T12:35:04;13.67;;;2.13;;
24277;SDS011;12394;42.692;23.314;2023-04-25T12:37:31;7.03;;;2.37;;
24277;SDS011;12394;42.692;23.314;2023-04-25T12:39:56;10.53;;;3.00;;
24277;SDS011;12394;42.692;23.314;2023-04-25T12:42:22;9.13;;;2.77;;
24277;SDS011;12394;42.692;23.314;2023-04-25T12:44:47;10.27;;;2.80;;
24277;SDS011;12394;42.692;23.314;2023-04-25T12:47:13;5.23;;;2.63;;
24277;SDS011;12394;42.692;23.314;2023-04-25T12:49:38;5.87;;;2.30;;
24277;SDS011;12394;42.692;23.314;2023-04-25T12:52:04;4.50;;;2.07;;
24277;SDS011;12394;42.692;23.314;2023-04-25T12:54:34;10.00;;;3.00;;
24277;SDS011;12394;42.692;23.314;2023-04-25T12:57:20;9.20;;;5.23;;
24277;SDS011;12394;42.692;23.314;2023-04-25T13:00:05;4.53;;;2.00;;
24277;SDS011;12394;42.692;23.314;2023-04-25T13:02:33;4.03;;;2.17;;
24277;SDS011;12394;42.692;23.314;2023-04-25T13:04:59;6.10;;;2.97;;
24277;SDS011;12394;42.692;23.314;2023-04-25T13:07:24;6.43;;;2.23;;
24277;SDS011;12394;42.692;23.314;2023-04-25T13:09:50;7.23;;;2.10;;
24277;SDS011;12394;42.692;23.314;2023-04-25T13:12:16;6.27;;;2.30;;
24277;SDS011;12394;42.692;23.314;2023-04-25T13:14:41;6.27;;;2.43;;
24277;SDS011;12394;42.692;23.314;2023-04-25T13:17:07;5.90;;;2.47;;
24277;SDS011;12394;42.692;23.314;2023-04-25T13:19:32;8.07;;;2.47;;
24277;SDS011;12394;42.692;23.314;2023-04-25T13:21:57;7.00;;;3.20;;
24277;SDS011;12394;42.692;23.314;2023-04-25T13:24:23;6.23;;;3.03;;
24277;SDS011;12394;42.692;23.314;2023-04-25T13:26:50;4.60;;;3.20;;
24277;SDS011;12394;42.692;23.314;2023-04-25T13:29:56;4.07;;;2.57;;
24277;SDS011;12394;42.692;23.314;2023-04-25T13:32:41;3.83;;;2.53;;
24277;SDS011;12394;42.692;23.314;2023-04-25T13:35:10;6.47;;;3.57;;
24277;SDS011;12394;42.692;23.314;2023-04-25T13:37:44;4.83;;;2.80;;
24277;SDS011;12394;42.692;23.314;2023-04-25T13:40:10;6.17;;;2.83;;
24277;SDS011;12394;42.692;23.314;2023-04-25T13:42:39;3.90;;;3.17;;
24277;SDS011;12394;42.692;23.314;2023-04-25T13:45:05;3.53;;;2.57;;
24277;SDS011;12394;42.692;23.314;2023-04-25T13:47:31;3.47;;;2.73;;
24277;SDS011;12394;42.692;23.314;2023-04-25T13:49:56;4.00;;;2.90;;
24277;SDS011;12394;42.692;23.314;2023-04-25T13:52:22;3.03;;;2.73;;
24277;SDS011;12394;42.692;23.314;2023-04-25T13:54:51;4.83;;;2.80;;
24277;SDS011;12394;42.692;23.314;2023-04-25T13:57:17;5.63;;;2.70;;
24277;SDS011;12394;42.692;23.314;2023-04-25T13:59:43;5.33;;;3.20;;
24277;SDS011;12394;42.692;23.314;2023-04-25T14:02:08;4.93;;;3.07;;
24277;SDS011;12394;42.692;23.314;2023-04-25T14:04:33;6.63;;;2.63;;
24277;SDS011;12394;42.692;23.314;2023-04-25T14:06:59;5.53;;;2.27;;
24277;SDS011;12394;42.692;23.314;2023-04-25T14:09:24;3.33;;;2.33;;
24277;SDS011;12394;42.692;23.314;2023-04-25T14:11:52;4.40;;;2.77;;
24277;SDS011;12394;42.692;23.314;2023-04-25T14:14:18;5.57;;;2.07;;
24277;SDS011;12394;42.692;23.314;2023-04-25T14:16:44;1.40;;;1.30;;
24277;SDS011;12394;42.692;23.314;2023-04-25T14:19:10;2.60;;;1.80;;
24277;SDS011;12394;42.692;23.314;2023-04-25T14:21:36;2.70;;;1.80;;
24277;SDS011;12394;42.692;23.314;2023-04-25T14:24:01;1.97;;;1.70;;
24277;SDS011;12394;42.692;23.314;2023-04-25T14:26:27;2.10;;;1.50;;
24277;SDS011;12394;42.692;23.314;2023-04-25T14:28:52;3.13;;;1.20;;
24277;SDS011;12394;42.692;23.314;2023-04-25T14:31:18;2.93;;;1.90;;
24277;SDS011;12394;42.692;23.314;2023-04-25T14:33:43;7.53;;;5.03;;
24277;SDS011;12394;42.692;23.314;2023-04-25T14:36:09;2.90;;;2.43;;
24277;SDS011;12394;42.692;23.314;2023-04-25T14:38:35;3.87;;;2.40;;
24277;SDS011;12394;42.692;23.314;2023-04-25T14:41:00;2.10;;;1.60;;